Portada
METAR-TAF:

METAR-TAF

Aeropuertos :

Aurillac, Francia

latitud: 44-53N, longitud: 002-25E, altitud: 639 m

Observación

El informe se hizo hace 39 minutos, a las 09:30 UTC
Viento 2 kt del este-sureste
Temperatura 6°C
Humedad 61%
Presión 1004 hPa
Visibilidad 10 km o más
sin nubes por debajo de 1500 m y sin presencia de cumulonimbus.

METAR: LFLW 190930Z AUTO 12002KT CAVOK 06/M01 Q1004 NOSIG

Hora: 11:09 (10:09 UTC)

Pronóstico

El informe se hizo hace 2 horas y 9 minutos, a las 08:00 UTC
Pronóstico válido del 19 a las 09 UTC al 19 a las 18 UTC
Viento 3 kt con dirección variable
Visibilidad 10 km o más
sin nubes por debajo de 1500 m y sin presencia de cumulonimbus.
Evolucionando progresivamente
del 19 a las 13 UTC al 19 a las 15 UTC
Nubes dispersas a una altura de 5500 ft
Evolucionando progresivamente
del 19 a las 16 UTC al 19 a las 18 UTC
Viento 8 kt del este-sureste

TAF: LFLW 190800Z 1909/1918 VRB03KT CAVOK BECMG 1913/1915 SCT055 BECMG 1916/1918 11008KT

Observaciones y pronósticos meteorológicos de más de 4000 aeropuertos (mensajes METAR y TAF).

Los puntos amarillos y rojos representan las estaciones disponibles.

Ponga el ratón en el punto deseado para ver el nombre de la estación.

Haga clic para ver las observaciones y los pronósticos meteorológicos.

Para cambiar el mapa : haga clic en los botones verdes con una cruz de color negro para hacer un zoom, en el botón verde con un guión para alejar o en las flechas verdes para mapas adyacentes.


METAR-TAF: